Terminal Aerodrome Forecast
Issued by NWS

Home | Current Version | Previous Version | Text Only | Print | Product List | Glossary Off
Versions: 1 2 3 4 5 6 7 8 9 10 11 12 13 14 15 16 17 18 19 20 21 22 23 24 25 26 27 28 29 30 31 32

000
FTUS43 KGRB 141900 AAA
TAFRHI
TAF AMD
KRHI 141902Z 1419/1518 23012G21KT P6SM VCSH BKN050
      TEMPO 1419/1421 BKN035
     FM142100 24010G16KT P6SM SCT040
     FM150200 26003KT P6SM BKN200
     FM151600 28005KT P6SM BKN025=

USA.gov is the U.S. government's official web portal to all federal, state and local government web resources and services.